createdAt,value
2023-04-18T00:01:08.519Z,74.86
2023-04-18T00:03:38.073Z,74.80
2023-04-18T00:06:05.435Z,74.90
2023-04-18T00:08:33.983Z,74.59
2023-04-18T00:11:02.296Z,74.98
2023-04-18T00:13:29.007Z,75.20
2023-04-18T00:15:57.123Z,75.10
2023-04-18T00:18:24.195Z,75.27
2023-04-18T00:20:51.046Z,75.30
2023-04-18T00:23:17.834Z,75.94
2023-04-18T00:25:44.692Z,75.57
2023-04-18T00:28:11.506Z,75.76
2023-04-18T00:30:38.290Z,75.89
2023-04-18T00:33:05.326Z,75.71
2023-04-18T00:35:57.045Z,75.96
2023-04-18T00:38:24.083Z,76.09
2023-04-18T00:40:50.957Z,76.33
2023-04-18T00:43:17.684Z,76.19
2023-04-18T00:45:44.922Z,76.08
2023-04-18T00:48:12.060Z,76.17
2023-04-18T00:50:40.608Z,76.08
2023-04-18T00:53:11.268Z,76.25
2023-04-18T00:55:39.144Z,76.39
2023-04-18T00:58:06.036Z,76.50
2023-04-18T01:00:33.366Z,76.31
2023-04-18T01:03:00.899Z,76.30
2023-04-18T01:05:27.881Z,76.02
2023-04-18T01:07:55.472Z,76.32
2023-04-18T01:10:22.239Z,76.54
2023-04-18T01:12:49.900Z,76.80
2023-04-18T01:15:17.321Z,76.83
2023-04-18T01:17:44.146Z,76.28
2023-04-18T01:20:13.814Z,76.53
2023-04-18T01:22:40.733Z,77.04
2023-04-18T01:25:09.309Z,76.58
2023-04-18T01:27:36.323Z,75.99
2023-04-18T01:30:03.222Z,76.28
2023-04-18T01:32:30.118Z,75.86
2023-04-18T01:34:57.772Z,76.51
2023-04-18T01:37:24.540Z,76.27
2023-04-18T01:39:51.398Z,76.29
2023-04-18T01:42:18.942Z,76.12
2023-04-18T01:44:45.663Z,76.63
2023-04-18T01:47:12.900Z,76.58
2023-04-18T01:49:41.008Z,76.40
2023-04-18T01:52:08.643Z,76.36
2023-04-18T01:54:35.623Z,76.42
2023-04-18T01:57:02.346Z,76.57
2023-04-18T01:59:30.706Z,76.04
2023-04-18T02:01:59.132Z,76.26
2023-04-18T02:04:26.680Z,76.49
2023-04-18T02:06:53.544Z,76.40
2023-04-18T02:09:20.475Z,76.68
2023-04-18T02:11:47.344Z,76.18
2023-04-18T02:14:14.387Z,76.52
2023-04-18T02:16:41.921Z,76.93
2023-04-18T02:19:08.692Z,76.29
2023-04-18T02:21:35.591Z,76.53
2023-04-18T02:24:02.256Z,77.11
2023-04-18T02:26:30.704Z,77.04
2023-04-18T02:28:57.930Z,77.07
2023-04-18T02:31:24.925Z,76.97
2023-04-18T02:33:51.680Z,77.33
2023-04-18T02:36:22.036Z,77.08
2023-04-18T02:38:48.853Z,77.08
2023-04-18T02:41:15.642Z,76.72
2023-04-18T02:43:43.273Z,77.12
2023-04-18T02:46:10.721Z,77.07
2023-04-18T02:48:38.014Z,77.01
2023-04-18T02:51:08.719Z,77.12
2023-04-18T02:53:37.936Z,77.02
2023-04-18T02:56:05.879Z,77.26
2023-04-18T02:58:51.455Z,77.40
2023-04-18T03:01:48.578Z,77.29
2023-04-18T03:04:18.775Z,77.41
2023-04-18T03:06:54.971Z,77.07
2023-04-18T03:09:22.630Z,77.33
2023-04-18T03:11:55.712Z,77.18
2023-04-18T03:14:26.240Z,77.44
2023-04-18T03:16:55.775Z,77.86
2023-04-18T03:19:28.029Z,77.83
2023-04-18T03:21:56.460Z,77.39
2023-04-18T03:24:23.365Z,77.62
2023-04-18T03:26:52.891Z,78.17
2023-04-18T03:29:25.200Z,77.67
2023-04-18T03:31:53.784Z,78.18
2023-04-18T03:34:20.591Z,78.19
2023-04-18T03:36:48.415Z,78.06
2023-04-18T03:39:19.833Z,78.18
2023-04-18T03:41:46.702Z,78.49
2023-04-18T03:44:14.529Z,78.59
2023-04-18T03:46:42.269Z,78.67
2023-04-18T03:49:10.424Z,78.62
2023-04-18T03:51:50.346Z,77.94
2023-04-18T03:54:18.505Z,78.37
2023-04-18T03:56:50.346Z,78.56
2023-04-18T03:59:19.008Z,78.67
2023-04-18T04:01:49.187Z,78.92
2023-04-18T04:04:17.935Z,78.76
2023-04-18T04:06:45.433Z,78.52
2023-04-18T04:09:16.581Z,78.48
2023-04-18T04:11:44.329Z,79.00
2023-04-18T04:14:13.861Z,78.57
2023-04-18T04:16:46.366Z,78.95
2023-04-18T04:19:16.231Z,78.88
2023-04-18T04:21:58.462Z,78.93
2023-04-18T04:24:27.141Z,79.32
2023-04-18T04:26:54.672Z,79.03
2023-04-18T04:29:23.984Z,79.09
2023-04-18T04:31:53.111Z,78.91
2023-04-18T04:34:31.226Z,79.19
2023-04-18T04:36:59.390Z,79.46
2023-04-18T04:39:31.222Z,79.30
2023-04-18T04:42:21.199Z,79.54
2023-04-18T04:44:56.156Z,79.43
2023-04-18T04:47:24.184Z,79.28
2023-04-18T04:49:50.943Z,79.54
2023-04-18T04:52:18.450Z,79.05
2023-04-18T04:54:45.898Z,79.51
2023-04-18T04:57:15.237Z,79.49
2023-04-18T04:59:44.514Z,79.38
2023-04-18T05:02:12.416Z,79.41
2023-04-18T05:04:41.270Z,79.34
2023-04-18T05:07:08.357Z,79.12
2023-04-18T05:09:35.140Z,79.58
2023-04-18T05:12:02.882Z,79.63
2023-04-18T05:14:29.559Z,79.51
2023-04-18T05:16:57.282Z,79.32
2023-04-18T05:19:24.150Z,79.46
2023-04-18T05:21:51.231Z,79.45
2023-04-18T05:24:18.062Z,79.57
2023-04-18T05:26:44.983Z,80.21
2023-04-18T05:29:15.300Z,79.65
2023-04-18T05:31:42.882Z,79.09
2023-04-18T05:34:12.378Z,79.35
2023-04-18T05:36:39.283Z,79.68
2023-04-18T05:39:06.920Z,80.09
2023-04-18T05:41:35.061Z,79.73
2023-04-18T05:44:05.607Z,80.05
2023-04-18T05:46:35.207Z,80.08
2023-04-18T05:51:53.714Z,79.85
2023-04-18T05:54:20.379Z,79.54
2023-04-18T05:56:47.401Z,80.38
2023-04-18T05:59:14.349Z,79.82
2023-04-18T06:01:41.291Z,79.42
2023-04-18T06:04:09.621Z,79.50
2023-04-18T06:06:38.298Z,79.26
2023-04-18T06:09:05.195Z,79.69
2023-04-18T06:11:31.899Z,80.38
2023-04-18T06:13:59.032Z,80.39
2023-04-18T06:16:25.867Z,79.42
2023-04-18T06:18:53.774Z,79.25
2023-04-18T06:21:22.352Z,79.04
2023-04-18T06:23:50.646Z,79.34
2023-04-18T06:26:18.294Z,79.69
2023-04-18T06:28:45.001Z,79.36
2023-04-18T06:31:12.383Z,79.34
2023-04-18T06:33:39.473Z,79.43
2023-04-18T06:36:10.515Z,79.58
2023-04-18T06:38:37.326Z,79.40
2023-04-18T06:41:05.879Z,79.67
2023-04-18T06:43:36.530Z,79.47
2023-04-18T06:46:05.532Z,79.00
2023-04-18T06:48:32.278Z,79.33
2023-04-18T06:51:03.665Z,79.46
2023-04-18T06:53:33.699Z,79.26
2023-04-18T06:56:01.410Z,79.55
2023-04-18T06:58:53.241Z,79.50
2023-04-18T07:01:21.534Z,78.97
2023-04-18T07:03:48.360Z,79.46
2023-04-18T07:06:15.628Z,79.89
2023-04-18T07:08:46.290Z,79.42
2023-04-18T07:11:13.693Z,79.36
2023-04-18T07:13:40.399Z,79.16
2023-04-18T07:19:00.818Z,79.08
2023-04-18T07:21:27.520Z,78.98
2023-04-18T07:23:56.280Z,79.32
2023-04-18T07:26:23.840Z,78.87
2023-04-18T07:28:52.263Z,78.96
2023-04-18T07:31:19.008Z,78.73
2023-04-18T07:33:48.484Z,78.80
2023-04-18T07:36:15.233Z,79.04
2023-04-18T07:38:44.286Z,79.00
2023-04-18T07:41:13.648Z,78.68
2023-04-18T07:43:40.668Z,78.91
2023-04-18T07:46:07.781Z,79.35
2023-04-18T07:48:34.639Z,79.90
2023-04-18T07:51:01.398Z,79.17
2023-04-18T07:53:29.866Z,79.42
2023-04-18T07:55:57.366Z,79.08
2023-04-18T07:58:24.675Z,79.62
2023-04-18T08:00:51.375Z,78.79
2023-04-18T08:03:18.932Z,78.76
2023-04-18T08:05:45.885Z,78.30
2023-04-18T08:08:12.975Z,79.15
2023-04-18T08:10:43.771Z,78.20
2023-04-18T08:13:10.500Z,78.07
2023-04-18T08:15:37.416Z,78.11
2023-04-18T08:18:04.239Z,78.25
2023-04-18T08:20:31.696Z,78.01
2023-04-18T08:23:07.578Z,78.04
2023-04-18T08:25:38.343Z,77.77
2023-04-18T08:28:05.790Z,77.68
2023-04-18T08:30:32.648Z,77.99
2023-04-18T08:33:03.399Z,77.66
2023-04-18T08:35:30.768Z,77.73
2023-04-18T08:37:57.456Z,77.21
2023-04-18T08:40:24.879Z,77.34
2023-04-18T08:42:52.938Z,77.02
2023-04-18T08:45:20.461Z,77.57
2023-04-18T08:47:47.527Z,77.67
2023-04-18T08:50:14.238Z,77.40
2023-04-18T08:52:46.058Z,77.03
2023-04-18T08:55:13.796Z,77.38
2023-04-18T08:57:40.532Z,76.94
2023-04-18T09:00:08.390Z,77.08
2023-04-18T09:02:40.577Z,76.79
2023-04-18T09:05:20.342Z,77.29
2023-04-18T09:07:49.563Z,77.31
2023-04-18T09:10:35.373Z,76.78
2023-04-18T09:13:03.943Z,76.69
2023-04-18T09:15:31.341Z,76.09
2023-04-18T09:18:04.613Z,75.98
2023-04-18T09:20:41.663Z,75.63
2023-04-18T09:23:13.154Z,75.40
2023-04-18T09:25:47.417Z,74.60
2023-04-18T09:28:28.304Z,74.11
2023-04-18T09:30:56.876Z,74.13
2023-04-18T09:33:31.289Z,73.91
2023-04-18T09:36:26.115Z,73.11
2023-04-18T09:38:58.405Z,72.95
2023-04-18T09:41:28.741Z,72.88
2023-04-18T09:44:14.409Z,73.05
2023-04-18T09:47:07.251Z,73.50
2023-04-18T09:49:34.210Z,72.68
2023-04-18T09:52:32.121Z,72.57
2023-04-18T09:55:02.402Z,72.70
2023-04-18T09:57:31.305Z,72.52
2023-04-18T10:00:10.531Z,72.26
2023-04-18T10:02:48.439Z,72.17
2023-04-18T10:05:15.710Z,72.02
2023-04-18T10:07:45.876Z,71.85
2023-04-18T10:10:13.237Z,71.56
2023-04-18T10:12:45.268Z,71.18
2023-04-18T10:15:12.836Z,70.84
2023-04-18T10:20:49.337Z,70.40
2023-04-18T10:23:32.252Z,69.63
2023-04-18T10:25:59.443Z,69.49
2023-04-18T10:28:26.614Z,69.08
2023-04-18T10:31:02.382Z,70.56
2023-04-18T10:33:42.469Z,69.20
2023-04-18T10:36:09.672Z,69.66
2023-04-18T10:38:37.831Z,70.02
2023-04-18T10:41:23.083Z,70.21
2023-04-18T10:44:11.207Z,71.21
2023-04-18T10:46:39.311Z,70.00
2023-04-18T10:49:13.443Z,69.95
2023-04-18T10:55:05.406Z,69.13
2023-04-18T10:57:49.705Z,69.62
2023-04-18T11:00:19.060Z,69.34
2023-04-18T11:02:50.222Z,68.87
2023-04-18T11:05:22.262Z,69.28
2023-04-18T11:07:49.912Z,69.27
2023-04-18T11:10:19.057Z,69.46
2023-04-18T11:12:50.377Z,66.51
2023-04-18T11:15:27.099Z,67.02
2023-04-18T11:18:00.013Z,66.95
2023-04-18T11:20:27.654Z,68.04
2023-04-18T11:22:57.479Z,68.38
2023-04-18T11:25:35.386Z,69.59
2023-04-18T11:28:06.292Z,69.19
2023-04-18T11:30:38.955Z,68.36
2023-04-18T11:33:09.404Z,68.42
2023-04-18T11:35:39.119Z,68.54
2023-04-18T11:38:06.657Z,68.60
2023-04-18T11:40:33.594Z,68.90
2023-04-18T11:43:05.773Z,68.83
2023-04-18T11:45:33.969Z,69.31
2023-04-18T11:48:02.434Z,69.77
2023-04-18T11:50:35.746Z,69.96
2023-04-18T11:53:04.282Z,70.68
2023-04-18T11:55:32.904Z,70.77
2023-04-18T11:58:02.599Z,70.69
2023-04-18T12:00:36.965Z,70.19
2023-04-18T12:03:07.074Z,71.68
2023-04-18T12:05:36.613Z,72.42
2023-04-18T12:08:09.279Z,70.68
2023-04-18T12:10:36.896Z,70.32
2023-04-18T12:13:08.549Z,70.45
2023-04-18T12:15:39.439Z,70.03
2023-04-18T12:18:06.810Z,70.77
2023-04-18T12:20:35.530Z,71.35
2023-04-18T12:23:03.409Z,71.24
2023-04-18T12:25:30.304Z,70.62
2023-04-18T12:28:00.374Z,70.83
2023-04-18T12:30:35.964Z,70.73
2023-04-18T12:33:05.353Z,70.21
2023-04-18T12:35:32.937Z,71.46
2023-04-18T12:38:02.101Z,70.95
2023-04-18T12:40:30.047Z,70.50
2023-04-18T12:43:02.869Z,71.78
2023-04-18T12:45:34.366Z,72.06
2023-04-18T12:48:01.303Z,72.23
2023-04-18T12:50:28.933Z,73.42
2023-04-18T12:52:59.442Z,72.82
2023-04-18T12:55:28.762Z,73.35
2023-04-18T12:57:56.375Z,74.12
2023-04-18T13:00:48.300Z,75.13
2023-04-18T13:03:16.139Z,75.41
2023-04-18T13:05:43.241Z,75.64
2023-04-18T13:08:17.499Z,75.95
2023-04-18T13:10:46.826Z,75.98
2023-04-18T13:13:13.947Z,76.09
2023-04-18T13:15:40.704Z,75.73
2023-04-18T13:18:07.787Z,75.34
2023-04-18T13:20:35.707Z,75.30
2023-04-18T13:23:03.290Z,75.64
2023-04-18T13:25:30.094Z,75.67
2023-04-18T13:27:57.732Z,74.79
2023-04-18T13:30:24.525Z,74.57
2023-04-18T13:32:51.547Z,74.70
2023-04-18T13:35:19.381Z,73.85
2023-04-18T13:37:46.335Z,73.54
2023-04-18T13:40:13.630Z,73.45
2023-04-18T13:42:40.848Z,73.81
2023-04-18T13:45:07.928Z,73.86
2023-04-18T13:47:36.005Z,73.48
2023-04-18T13:50:02.899Z,73.67
2023-04-18T13:52:29.660Z,73.48
2023-04-18T13:54:58.272Z,73.83
2023-04-18T13:57:24.932Z,74.27
2023-04-18T13:59:51.732Z,74.54
2023-04-18T14:02:18.602Z,74.20
2023-04-18T14:04:45.526Z,74.10
2023-04-18T14:07:13.333Z,73.63
2023-04-18T14:09:40.104Z,74.43
2023-04-18T14:12:08.506Z,74.31
2023-04-18T14:14:35.208Z,74.12
2023-04-18T14:17:03.324Z,74.20
2023-04-18T14:19:30.063Z,74.20
2023-04-18T14:21:56.876Z,74.60
2023-04-18T14:24:27.334Z,74.75
2023-04-18T14:26:54.817Z,74.81
2023-04-18T14:29:21.628Z,74.68
2023-04-18T14:31:48.704Z,74.90
2023-04-18T14:34:17.006Z,76.10
2023-04-18T14:36:44.360Z,75.55
2023-04-18T14:39:11.192Z,76.03
2023-04-18T14:41:38.362Z,76.14
2023-04-18T14:44:05.113Z,75.82
2023-04-18T14:46:32.343Z,76.87
2023-04-18T14:48:59.946Z,77.51
2023-04-18T14:51:26.695Z,77.58
2023-04-18T14:54:18.195Z,76.86
2023-04-18T14:56:45.103Z,77.62
2023-04-18T14:59:13.587Z,77.05
2023-04-18T15:01:44.236Z,77.59
2023-04-18T15:04:11.293Z,77.51
2023-04-18T15:07:09.054Z,77.24
2023-04-18T15:09:38.227Z,77.38
2023-04-18T15:12:06.297Z,77.37
2023-04-18T15:14:34.018Z,78.08
2023-04-18T15:17:00.822Z,77.62
2023-04-18T15:19:28.294Z,77.26
2023-04-18T15:21:58.392Z,77.95
2023-04-18T15:24:25.200Z,78.37
2023-04-18T15:26:52.841Z,77.86
2023-04-18T15:29:21.362Z,77.87
2023-04-18T15:31:49.900Z,78.31
2023-04-18T15:34:17.413Z,78.13
2023-04-18T15:36:44.513Z,78.78
2023-04-18T15:39:11.242Z,79.07
2023-04-18T15:41:39.968Z,79.52
2023-04-18T15:44:08.335Z,79.65
2023-04-18T15:46:35.046Z,79.93
2023-04-18T15:49:02.878Z,79.78
2023-04-18T15:51:29.624Z,81.01
2023-04-18T15:53:56.999Z,81.29
2023-04-18T15:56:26.410Z,81.30
2023-04-18T15:58:56.495Z,81.25
2023-04-18T16:01:24.363Z,81.62
2023-04-18T16:03:51.128Z,82.01
2023-04-18T16:06:20.375Z,82.75
2023-04-18T16:08:47.073Z,82.41
2023-04-18T16:11:15.021Z,82.67
2023-04-18T16:13:41.840Z,83.07
2023-04-18T16:16:11.906Z,83.14
2023-04-18T16:18:39.387Z,82.83
2023-04-18T16:21:06.275Z,82.89
2023-04-18T16:23:33.088Z,83.44
2023-04-18T16:25:59.905Z,84.20
2023-04-18T16:28:27.212Z,84.90
2023-04-18T16:30:55.617Z,85.73
2023-04-18T16:33:22.861Z,86.93
2023-04-18T16:35:49.700Z,87.54
2023-04-18T16:38:16.736Z,88.20
2023-04-18T16:40:43.556Z,89.29
2023-04-18T16:43:10.910Z,88.92
2023-04-18T16:45:37.719Z,88.97
2023-04-18T16:48:04.973Z,89.86
2023-04-18T16:50:31.863Z,90.01
2023-04-18T16:52:59.148Z,90.40
2023-04-18T16:55:25.992Z,90.34
2023-04-18T16:57:53.101Z,90.44
2023-04-18T17:00:19.990Z,90.58
2023-04-18T17:02:47.313Z,90.87
2023-04-18T17:05:14.508Z,91.09
2023-04-18T17:07:41.701Z,91.43
2023-04-18T17:10:10.127Z,91.30
2023-04-18T17:12:36.959Z,91.78
2023-04-18T17:15:04.608Z,91.62
2023-04-18T17:17:31.509Z,91.17
2023-04-18T17:19:58.278Z,91.17
2023-04-18T17:22:25.537Z,91.34
2023-04-18T17:24:54.758Z,91.42
2023-04-18T17:27:22.197Z,91.18
2023-04-18T17:29:49.426Z,91.06
2023-04-18T17:32:17.400Z,91.61
2023-04-18T17:34:45.066Z,91.38
2023-04-18T17:37:12.731Z,91.15
2023-04-18T17:39:41.294Z,91.50
2023-04-18T17:42:10.305Z,91.65
2023-04-18T17:44:38.758Z,91.49
2023-04-18T17:47:07.016Z,91.94
2023-04-18T17:49:34.457Z,91.95
2023-04-18T17:52:03.582Z,91.92
2023-04-18T17:54:30.647Z,90.75
2023-04-18T17:56:59.346Z,91.25
2023-04-18T17:59:26.720Z,90.59
2023-04-18T18:01:54.796Z,90.41
2023-04-18T18:04:24.906Z,89.83
2023-04-18T18:06:57.715Z,89.58
2023-04-18T18:09:25.242Z,89.31
2023-04-18T18:11:55.324Z,89.52
2023-04-18T18:14:49.742Z,89.47
2023-04-18T18:17:17.342Z,89.16
2023-04-18T18:19:44.225Z,88.61
2023-04-18T18:22:13.063Z,89.36
2023-04-18T18:24:42.200Z,89.21
2023-04-18T18:27:10.645Z,89.22
2023-04-18T18:29:38.784Z,88.85
2023-04-18T18:32:09.560Z,88.84
2023-04-18T18:34:37.037Z,88.57
2023-04-18T18:37:07.445Z,89.23
2023-04-18T18:39:34.840Z,89.43
2023-04-18T18:42:02.564Z,88.26
2023-04-18T18:44:30.207Z,88.67
2023-04-18T18:47:00.841Z,88.96
2023-04-18T18:49:28.326Z,89.54
2023-04-18T18:51:57.456Z,89.72
2023-04-18T18:54:26.993Z,90.48
2023-04-18T18:57:00.176Z,89.68
2023-04-18T18:59:28.088Z,90.34
2023-04-18T19:01:55.494Z,90.09
2023-04-18T19:04:25.331Z,91.04
2023-04-18T19:06:54.037Z,91.51
2023-04-18T19:09:23.534Z,91.13
2023-04-18T19:11:53.371Z,91.71
2023-04-18T19:14:24.388Z,91.68
2023-04-18T19:19:44.181Z,92.16
2023-04-18T19:22:13.780Z,92.50
2023-04-18T19:24:41.145Z,92.22
2023-04-18T19:27:10.854Z,92.38
2023-04-18T19:29:41.486Z,92.98
2023-04-18T19:32:09.849Z,92.35
2023-04-18T19:34:40.656Z,92.49
2023-04-18T19:37:08.786Z,92.01
2023-04-18T19:40:00.846Z,91.77
2023-04-18T19:42:30.846Z,91.47
2023-04-18T19:45:01.334Z,91.96
2023-04-18T19:47:30.026Z,91.30
2023-04-18T19:49:57.515Z,91.77
2023-04-18T19:55:41.725Z,91.41
2023-04-18T19:58:09.718Z,91.64
2023-04-18T20:00:37.942Z,91.39
2023-04-18T20:03:05.719Z,91.27
2023-04-18T20:05:33.868Z,91.18
2023-04-18T20:08:07.128Z,91.22
2023-04-18T20:10:34.729Z,90.98
2023-04-18T20:13:26.804Z,90.93
2023-04-18T20:15:55.272Z,91.35
2023-04-18T20:21:15.908Z,91.36
2023-04-18T20:23:44.272Z,91.41
2023-04-18T20:26:12.520Z,91.00
2023-04-18T20:28:42.316Z,90.96
2023-04-18T20:31:12.188Z,90.26
2023-04-18T20:33:41.861Z,90.06
2023-04-18T20:36:09.318Z,90.21
2023-04-18T20:38:37.331Z,89.57
2023-04-18T20:41:06.316Z,90.01
2023-04-18T20:43:35.231Z,89.76
2023-04-18T20:46:03.674Z,89.64
2023-04-18T20:48:30.997Z,89.67
2023-04-18T20:50:57.954Z,89.84
2023-04-18T20:53:25.096Z,88.63
2023-04-18T20:55:53.133Z,88.79
2023-04-18T20:58:20.382Z,88.53
2023-04-18T21:00:47.416Z,88.55
2023-04-18T21:03:15.420Z,88.35
2023-04-18T21:05:44.500Z,87.97
2023-04-18T21:08:12.130Z,87.79
2023-04-18T21:11:04.349Z,87.84
2023-04-18T21:13:32.745Z,87.36
2023-04-18T21:15:59.671Z,87.17
2023-04-18T21:18:27.392Z,87.41
2023-04-18T21:20:54.147Z,86.65
2023-04-18T21:23:25.856Z,86.44
2023-04-18T21:25:52.905Z,86.99
2023-04-18T21:28:19.848Z,86.97
2023-04-18T21:30:46.912Z,86.70
2023-04-18T21:33:15.307Z,86.38
2023-04-18T21:35:42.198Z,86.51
2023-04-18T21:38:10.034Z,86.13
2023-04-18T21:40:39.468Z,85.87
2023-04-18T21:43:07.308Z,86.62
2023-04-18T21:45:34.169Z,86.29
2023-04-18T21:48:01.176Z,86.25
2023-04-18T21:50:29.187Z,86.03
2023-04-18T21:52:56.908Z,86.20
2023-04-18T21:55:24.490Z,85.91
2023-04-18T21:57:51.401Z,86.36
2023-04-18T22:00:19.358Z,86.55
2023-04-18T22:02:46.681Z,86.34
2023-04-18T22:05:13.978Z,87.01
2023-04-18T22:07:54.428Z,86.87
2023-04-18T22:10:26.778Z,86.73
2023-04-18T22:12:54.979Z,86.39
2023-04-18T22:15:22.118Z,86.17
2023-04-18T22:17:52.480Z,86.00
2023-04-18T22:20:20.156Z,85.59
2023-04-18T22:22:47.008Z,85.34
2023-04-18T22:25:14.510Z,84.92
2023-04-18T22:27:41.978Z,84.61
2023-04-18T22:30:10.519Z,84.99
2023-04-18T22:35:29.364Z,84.04
2023-04-18T22:37:56.118Z,84.33
2023-04-18T22:40:23.942Z,83.96
2023-04-18T22:42:52.378Z,84.17
2023-04-18T22:45:19.560Z,83.66
2023-04-18T22:47:48.236Z,83.74
2023-04-18T22:50:15.283Z,84.00
2023-04-18T22:52:43.045Z,83.32
2023-04-18T22:55:13.911Z,82.83
2023-04-18T22:57:40.848Z,82.91
2023-04-18T23:00:08.543Z,82.38
2023-04-18T23:02:35.417Z,82.37
2023-04-18T23:05:02.704Z,82.54
2023-04-18T23:07:29.484Z,82.66
2023-04-18T23:09:56.907Z,82.73
2023-04-18T23:12:23.874Z,82.40
2023-04-18T23:14:51.013Z,82.28
2023-04-18T23:17:18.528Z,82.32
2023-04-18T23:19:46.991Z,82.28
2023-04-18T23:22:13.772Z,82.70
2023-04-18T23:24:40.783Z,82.83
2023-04-18T23:27:07.520Z,83.05
2023-04-18T23:29:38.776Z,83.22
2023-04-18T23:32:06.592Z,83.27
2023-04-18T23:34:33.380Z,83.08
2023-04-18T23:37:00.320Z,83.62
2023-04-18T23:39:27.403Z,83.78
2023-04-18T23:41:54.983Z,83.53
2023-04-18T23:44:22.444Z,84.38
2023-04-18T23:46:50.800Z,84.29
2023-04-18T23:49:19.421Z,84.68
2023-04-18T23:51:46.970Z,85.18
2023-04-18T23:54:14.727Z,85.48
2023-04-18T23:56:41.863Z,85.41
2023-04-18T23:59:10.514Z,86.25
